Terminal Aerodrome Forecast
Issued by NWS

Home | Current Version | Previous Version | Text Only | Print | Product List | Glossary On
Versions: 1 2 3 4 5 6 7 8 9 10 11 12 13 14 15 16 17 18 19 20 21 22 23 24
151
FTUS41 KAKQ 041139
TAFPHF
TAF
KPHF 041139Z 0412/0512 06007KT P6SM OVC005
     FM041600 05005KT P6SM BKN008
     FM041800 01004KT P6SM OVC015
     FM042100 01006KT P6SM BKN050
     FM050400 03004KT 2SM BR OVC007=

USA.gov is the U.S. government's official web portal to all federal, state and local government web resources and services.